Saltar para o conteúdo principal

Amareleja

ID 1210851 · 38.2007, -7.2261 mapa

Última leitura · 2026-05-09 18:00 (Europe/Lisbon)

Temperatura
16.2 °C
Humidade
74 %
Pressão
1,008.0 hPa
Precipitação
0.8 mm
Radiação
529 W/m²
Velocidade do vento
28.1 km/h
Direcção do vento
SW · Sudoeste

Histórico de 24 horas

Hora (Europe/Lisbon) Temperatura Humidade Pressão Chuva Vento Direcção
2026-05-09 18:00 16.2 °C 74 % 1,008.0 0.8 mm 28.1 km/h SW
2026-05-09 17:00 19.8 °C 57 % 1,007.0 0.0 mm 22.7 km/h S
2026-05-09 16:00 18.1 °C 67 % 1,007.3 1.0 mm 23.4 km/h S
2026-05-09 15:00 20.2 °C 46 % 1,006.5 0.0 mm 25.9 km/h S
2026-05-09 14:00 19.4 °C 52 % 1,006.4 0.0 mm 28.1 km/h SW
2026-05-09 13:00 19.1 °C 61 % 1,006.1 0.0 mm 31.3 km/h SW
2026-05-09 12:00 18.1 °C 68 % 1,005.4 0.6 mm 30.6 km/h SW
2026-05-09 11:00 17.1 °C 79 % 1,004.8 0.0 mm 32.4 km/h S
2026-05-09 10:00 15.8 °C 87 % 1,004.8 0.0 mm 25.6 km/h S
2026-05-09 09:00 14.3 °C 92 % 1,005.2 0.3 mm 10.8 km/h SE
2026-05-09 08:00 13.9 °C 95 % 1,005.3 0.8 mm 11.2 km/h SE
2026-05-09 07:00 12.5 °C 97 % 1,005.4 2.4 mm 10.4 km/h SE
2026-05-09 06:00 12.4 °C 96 % 1,005.7 4.2 mm 7.2 km/h E
2026-05-09 05:00 13.2 °C 90 % 1,006.4 13.2 mm 7.9 km/h E
2026-05-09 04:00 15.0 °C 75 % 1,006.7 0.8 mm 3.6 km/h W
2026-05-09 03:00 14.9 °C 69 % 1,007.0 0.0 mm 8.3 km/h SE
2026-05-09 02:00 15.0 °C 73 % 1,007.9 0.0 mm 8.3 km/h SE
2026-05-09 01:00 15.1 °C 71 % 1,008.5 0.0 mm 7.9 km/h SE
2026-05-09 00:00 15.6 °C 68 % 1,009.1 0.0 mm 11.5 km/h S
2026-05-08 23:00 16.0 °C 61 % 1,008.9 0.0 mm 16.9 km/h S
2026-05-08 22:00 16.4 °C 50 % 1,008.2 0.0 mm 12.2 km/h S
2026-05-08 21:00 18.2 °C 43 % 1,007.3 0.0 mm 11.5 km/h S
2026-05-08 20:00 20.3 °C 34 % 1,006.8 0.0 mm 16.9 km/h S
2026-05-08 19:00 21.4 °C 31 % 1,006.8 0.0 mm 20.5 km/h S